Time;durP1;ratioP1;P1;durP2;ratioP2;P2;SDS_P1;SDS_P2;PMS_P1;PMS_P2;Temp;Humidity;BMP_temperature;BMP_pressure;BME280_temperature;BME280_humidity;BME280_pressure;Samples;Min_cycle;Max_cycle;Signal;HPM_P1;HPM_P2
2022/08/31 00:06:16;;;;;;;3.53;3.22;;;25.60;59.40;;;;;;5067773;28;20102;-65
2022/08/31 00:08:43;;;;;;;2.90;2.70;;;25.60;59.40;;;;;;5067965;28;20053;-65
2022/08/31 00:11:12;;;;;;;3.50;3.20;;;25.60;59.40;;;;;;5067726;28;20879;-65
2022/08/31 00:13:41;;;;;;;3.72;3.38;;;25.60;59.40;;;;;;5067927;28;20492;-65
2022/08/31 00:16:10;;;;;;;4.40;3.25;;;25.60;59.40;;;;;;5067462;28;20044;-65
2022/08/31 00:18:37;;;;;;;3.22;2.92;;;25.60;59.40;;;;;;5067645;28;20475;-65
2022/08/31 00:21:05;;;;;;;3.28;3.08;;;25.60;59.40;;;;;;5067325;28;20075;-65
2022/08/31 00:23:32;;;;;;;2.85;2.65;;;25.50;59.30;;;;;;5068287;28;20106;-65
2022/08/31 00:25:59;;;;;;;3.35;3.05;;;25.60;59.40;;;;;;5063383;28;20102;-65
2022/08/31 00:28:26;;;;;;;3.50;3.20;;;25.60;59.40;;;;;;5066463;28;20044;-65
2022/08/31 00:30:53;;;;;;;3.42;3.13;;;25.60;59.40;;;;;;5068274;28;20044;-65
2022/08/31 00:33:21;;;;;;;4.32;3.53;;;25.60;59.30;;;;;;5067489;28;20045;-65
2022/08/31 00:35:48;;;;;;;3.88;3.47;;;25.60;59.30;;;;;;5067181;28;20090;-65
2022/08/31 00:38:15;;;;;;;3.05;2.85;;;25.60;59.30;;;;;;5066638;28;20048;-65
2022/08/31 00:40:45;;;;;;;3.97;3.58;;;25.60;59.30;;;;;;5066790;28;20080;-65
2022/08/31 00:43:34;;;;;;;2.80;2.45;;;25.60;59.20;;;;;;5068239;28;20149;-66
2022/08/31 00:46:02;;;;;;;3.53;2.97;;;25.60;59.20;;;;;;5067105;28;20049;-65
2022/08/31 00:48:29;;;;;;;3.20;3.00;;;25.60;59.20;;;;;;5067785;28;20086;-65
2022/08/31 00:50:57;;;;;;;3.10;2.80;;;25.60;59.20;;;;;;5066694;28;20689;-65
2022/08/31 00:53:25;;;;;;;3.17;2.97;;;25.60;59.20;;;;;;5066834;28;20560;-65
2022/08/31 00:55:53;;;;;;;4.13;3.25;;;25.60;59.30;;;;;;5064543;28;20440;-65
2022/08/31 00:58:20;;;;;;;3.25;2.97;;;25.60;59.20;;;;;;5065353;28;20566;-65
2022/08/31 01:00:48;;;;;;;4.18;3.45;;;25.50;59.20;;;;;;5067634;28;20558;-65
2022/08/31 01:03:16;;;;;;;3.53;3.17;;;25.60;59.20;;;;;;5071152;28;20067;-65
2022/08/31 01:05:43;;;;;;;3.33;3.03;;;25.60;59.30;;;;;;5070685;28;20098;-65
2022/08/31 01:08:11;;;;;;;3.67;3.38;;;25.50;59.20;;;;;;5070966;28;20052;-65
2022/08/31 01:10:45;;;;;;;3.35;3.13;;;25.50;59.20;;;;;;5070810;28;20098;-65
2022/08/31 01:13:14;;;;;;;3.33;3.05;;;25.50;59.20;;;;;;5071255;28;20517;-65
2022/08/31 01:15:50;;;;;;;2.92;2.72;;;25.50;59.20;;;;;;5070412;28;20125;-65
2022/08/31 01:18:22;;;;;;;3.47;3.17;;;25.50;59.20;;;;;;5071212;28;20049;-65
2022/08/31 01:21:28;;;;;;;8.10;3.00;;;25.50;59.20;;;;;;5070468;28;20066;-65
2022/08/31 01:24:01;;;;;;;3.70;3.38;;;25.50;59.20;;;;;;5070600;28;20069;-65
2022/08/31 01:26:30;;;;;;;3.10;2.80;;;25.50;59.20;;;;;;5071269;28;20502;-65
2022/08/31 01:29:01;;;;;;;3.42;3.13;;;25.50;59.20;;;;;;5065930;28;20087;-65
2022/08/31 01:31:37;;;;;;;3.50;3.20;;;25.50;59.20;;;;;;5069692;28;20170;-65
2022/08/31 01:34:05;;;;;;;2.65;2.45;;;25.50;59.20;;;;;;5070814;28;20049;-65
2022/08/31 01:36:34;;;;;;;2.80;2.60;;;25.50;59.20;;;;;;5070919;28;20060;-65
2022/08/31 01:39:03;;;;;;;3.55;3.17;;;25.50;59.20;;;;;;5070523;28;20437;-65
2022/08/31 01:41:30;;;;;;;3.22;3.03;;;25.50;59.20;;;;;;5070101;28;20052;-65
2022/08/31 01:43:57;;;;;;;3.50;3.20;;;25.50;59.30;;;;;;5070638;28;20106;-65
2022/08/31 01:46:24;;;;;;;3.55;3.25;;;25.50;59.40;;;;;;5069868;28;20098;-65
2022/08/31 01:48:52;;;;;;;3.38;3.08;;;25.50;59.40;;;;;;5070595;28;20075;-65
2022/08/31 01:51:21;;;;;;;2.83;2.53;;;25.50;59.50;;;;;;5070174;28;20063;-65
2022/08/31 01:53:51;;;;;;;3.25;2.83;;;25.50;59.60;;;;;;5070035;28;20074;-65
2022/08/31 01:56:27;;;;;;;3.22;3.03;;;25.50;59.60;;;;;;5070568;28;20045;-65
2022/08/31 01:58:54;;;;;;;3.15;2.90;;;25.50;59.70;;;;;;5066743;28;20474;-65
2022/08/31 02:01:26;;;;;;;3.05;2.75;;;25.50;59.80;;;;;;5066632;28;20496;-65
2022/08/31 02:04:03;;;;;;;5.35;3.17;;;25.50;59.70;;;;;;5069813;28;20048;-65
2022/08/31 02:06:31;;;;;;;3.10;2.80;;;25.50;59.70;;;;;;5068879;28;20048;-65
2022/08/31 02:08:58;;;;;;;3.25;3.05;;;25.50;59.80;;;;;;5070205;28;20040;-65
2022/08/31 02:11:26;;;;;;;2.95;2.75;;;25.50;59.70;;;;;;5069001;28;20052;-65
2022/08/31 02:13:53;;;;;;;3.13;2.90;;;25.50;59.70;;;;;;5069690;28;20404;-65
2022/08/31 02:16:20;;;;;;;3.10;2.90;;;25.50;59.70;;;;;;5069473;28;20440;-65
2022/08/31 02:18:48;;;;;;;2.88;2.67;;;25.50;59.70;;;;;;5070084;28;20063;-65
2022/08/31 02:21:15;;;;;;;2.85;2.65;;;25.50;59.70;;;;;;5068176;28;20466;-65
2022/08/31 02:23:43;;;;;;;3.28;3.00;;;25.50;59.70;;;;;;5070186;28;20265;-65
2022/08/31 02:26:10;;;;;;;3.92;2.47;;;25.50;59.70;;;;;;5069506;28;20121;-66
2022/08/31 02:28:37;;;;;;;3.15;2.90;;;25.50;59.70;;;;;;5069229;28;20073;-65
2022/08/31 02:31:05;;;;;;;3.08;2.78;;;25.50;59.70;;;;;;5064926;28;20040;-64
2022/08/31 02:33:32;;;;;;;6.15;3.08;;;25.40;59.60;;;;;;5069229;28;20061;-64
2022/08/31 02:35:59;;;;;;;2.92;2.63;;;25.50;59.70;;;;;;5069310;28;20052;-64
2022/08/31 02:38:26;;;;;;;4.90;3.15;;;25.50;59.70;;;;;;5069967;28;20048;-64
2022/08/31 02:40:54;;;;;;;4.78;3.00;;;25.40;59.60;;;;;;5068786;28;20516;-65
2022/08/31 02:43:21;;;;;;;3.10;2.90;;;25.40;59.60;;;;;;5068173;28;20079;-65
2022/08/31 02:45:51;;;;;;;4.50;2.72;;;25.40;59.60;;;;;;5069189;28;20366;-65
2022/08/31 02:48:20;;;;;;;3.10;2.80;;;25.40;59.60;;;;;;5069091;28;20044;-65
2022/08/31 02:50:49;;;;;;;7.30;3.15;;;25.50;59.70;;;;;;5068603;28;20544;-65
2022/08/31 02:53:20;;;;;;;2.65;2.45;;;25.40;59.60;;;;;;5068525;28;20468;-65
2022/08/31 02:55:48;;;;;;;5.15;3.00;;;25.40;59.60;;;;;;5051432;28;20056;-65
2022/08/31 02:58:15;;;;;;;2.60;2.40;;;25.40;59.70;;;;;;5068876;28;20102;-65
2022/08/31 03:00:50;;;;;;;7.88;3.38;;;25.40;59.70;;;;;;5068638;28;20052;-65
2022/08/31 03:03:17;;;;;;;3.50;2.70;;;25.40;59.70;;;;;;5064625;28;20049;-65
2022/08/31 03:05:45;;;;;;;5.30;3.08;;;25.40;59.70;;;;;;5066846;28;20102;-65
2022/08/31 03:08:12;;;;;;;3.15;2.75;;;25.40;59.80;;;;;;5069409;28;20052;-65
2022/08/31 03:10:40;;;;;;;3.20;2.90;;;25.40;59.80;;;;;;5068754;28;20106;-64
2022/08/31 03:13:07;;;;;;;4.65;2.90;;;25.40;59.80;;;;;;5068895;28;20262;-65
2022/08/31 03:15:34;;;;;;;3.63;3.03;;;25.40;59.80;;;;;;5067012;28;20098;-65
2022/08/31 03:18:02;;;;;;;2.97;2.67;;;25.40;59.80;;;;;;5068419;28;20437;-64
2022/08/31 03:20:33;;;;;;;7.75;2.70;;;25.40;59.70;;;;;;5068394;28;20078;-64
2022/08/31 03:23:01;;;;;;;3.33;3.03;;;25.40;59.80;;;;;;5050355;28;20053;-65
2022/08/31 03:25:29;;;;;;;3.67;2.40;;;25.50;59.80;;;;;;5067974;28;20040;-65
2022/08/31 03:27:56;;;;;;;3.67;2.88;;;25.40;59.70;;;;;;5067184;28;20080;-65
2022/08/31 03:30:24;;;;;;;4.15;3.05;;;25.40;59.70;;;;;;5066755;28;20044;-64
2022/08/31 03:32:57;;;;;;;6.43;2.75;;;25.50;59.80;;;;;;5068374;28;20052;-65
2022/08/31 03:35:29;;;;;;;3.90;3.08;;;25.40;59.70;;;;;;5063174;28;20102;-64
2022/08/31 03:37:56;;;;;;;3.88;2.95;;;25.40;59.70;;;;;;5066648;28;20056;-64
2022/08/31 03:40:24;;;;;;;5.28;3.13;;;25.40;59.70;;;;;;5067997;28;20451;-65
2022/08/31 03:42:51;;;;;;;4.20;2.85;;;25.40;59.70;;;;;;5068048;28;20135;-64
2022/08/31 03:45:18;;;;;;;2.83;2.58;;;25.40;59.70;;;;;;5066950;28;20473;-64
2022/08/31 03:47:46;;;;;;;6.35;2.58;;;25.40;59.70;;;;;;5067570;28;20562;-65
2022/08/31 03:50:14;;;;;;;3.78;2.67;;;25.40;59.60;;;;;;5068644;28;20048;-65
2022/08/31 03:52:42;;;;;;;6.80;3.20;;;25.40;59.60;;;;;;5067631;28;20075;-65
2022/08/31 03:55:10;;;;;;;3.13;2.45;;;25.40;59.60;;;;;;5068315;28;20101;-65
2022/08/31 03:57:38;;;;;;;3.25;2.70;;;25.40;59.60;;;;;;5067810;28;20493;-65
2022/08/31 04:00:06;;;;;;;3.20;2.72;;;25.40;59.60;;;;;;5068412;28;20232;-65
2022/08/31 04:02:37;;;;;;;4.47;2.45;;;25.40;59.60;;;;;;5066427;28;20099;-65
2022/08/31 04:05:05;;;;;;;3.15;2.58;;;25.40;59.60;;;;;;5066049;28;20590;-65
2022/08/31 04:07:36;;;;;;;3.03;2.53;;;25.40;59.50;;;;;;5064682;28;20507;-65
2022/08/31 04:10:12;;;;;;;4.50;2.92;;;25.40;59.50;;;;;;5067543;28;20048;-65
2022/08/31 04:12:40;;;;;;;5.10;3.08;;;25.40;59.40;;;;;;5067548;28;20044;-64
2022/08/31 04:15:08;;;;;;;5.72;2.72;;;25.40;59.40;;;;;;5067956;28;20500;-64
2022/08/31 04:17:36;;;;;;;4.40;2.63;;;25.40;59.40;;;;;;5066354;28;20102;-65
2022/08/31 04:20:05;;;;;;;4.85;3.22;;;25.40;59.40;;;;;;5067098;28;20105;-64
2022/08/31 04:22:32;;;;;;;2.97;2.50;;;25.40;59.20;;;;;;5067427;28;20542;-65
2022/08/31 04:24:59;;;;;;;3.15;2.78;;;25.40;59.20;;;;;;5067962;28;20102;-65
2022/08/31 04:27:27;;;;;;;5.15;3.22;;;25.40;59.70;;;;;;5067575;28;20044;-65
2022/08/31 04:29:54;;;;;;;5.68;2.70;;;25.40;59.00;;;;;;5068240;28;20044;-65
2022/08/31 04:32:21;;;;;;;3.92;2.88;;;25.40;59.00;;;;;;5066417;28;20109;-65
2022/08/31 04:34:50;;;;;;;4.68;2.80;;;25.50;58.90;;;;;;5065472;28;20364;-64
2022/08/31 04:37:22;;;;;;;3.88;3.20;;;25.50;58.90;;;;;;5062836;28;20048;-65
2022/08/31 04:39:49;;;;;;;4.63;3.10;;;25.50;58.80;;;;;;5082445;28;20040;-64
2022/08/31 04:42:18;;;;;;;2.65;2.40;;;25.50;58.80;;;;;;5071143;28;20510;-64
2022/08/31 04:44:45;;;;;;;2.38;2.25;;;25.50;58.70;;;;;;5070641;28;20044;-64
2022/08/31 04:47:12;;;;;;;3.17;2.92;;;25.50;58.70;;;;;;5071875;28;20118;-65
2022/08/31 04:49:39;;;;;;;3.45;2.70;;;25.50;58.60;;;;;;5072316;28;20036;-65
2022/08/31 04:52:07;;;;;;;4.35;2.78;;;25.50;58.50;;;;;;5072787;28;20086;-64
2022/08/31 04:54:35;;;;;;;3.28;2.78;;;25.50;58.50;;;;;;5075961;28;20110;-65
2022/08/31 04:57:02;;;;;;;4.68;3.00;;;25.50;58.40;;;;;;5075618;28;20080;-65
2022/08/31 04:59:29;;;;;;;6.28;3.40;;;25.60;58.50;;;;;;5072425;28;20470;-64
2022/08/31 05:01:57;;;;;;;2.58;2.35;;;25.50;58.30;;;;;;5071721;28;20439;-65
2022/08/31 05:04:27;;;;;;;3.50;3.20;;;25.50;58.20;;;;;;5071890;28;20052;-67
2022/08/31 05:06:56;;;;;;;3.17;2.88;;;25.60;58.20;;;;;;5072315;28;20542;-65
2022/08/31 05:09:23;;;;;;;3.92;2.90;;;25.50;58.00;;;;;;5066546;28;20056;-65
2022/08/31 05:11:52;;;;;;;3.08;2.80;;;25.50;57.90;;;;;;5067685;28;20049;-66
2022/08/31 05:14:21;;;;;;;2.95;2.70;;;25.50;57.80;;;;;;5070584;28;20570;-65
2022/08/31 05:16:50;;;;;;;3.30;2.97;;;25.40;57.90;;;;;;5068590;28;20147;-62
2022/08/31 05:26:49;;;;;;;3.42;3.13;;;24.60;55.10;;;;;;5069000;28;20043;-65
2022/08/31 05:34:21;;;;;;;3.22;2.88;;;23.60;53.70;;;;;;5091281;22;20047;-68
2022/08/31 05:40:09;;;;;;;5.25;3.60;;;22.50;52.30;;;;;;5641718;22;20128;-63
2022/08/31 05:42:37;;;;;;;5.78;3.97;;;22.20;53.40;;;;;;5055895;28;20115;-62
2022/08/31 05:45:04;;;;;;;4.47;3.70;;;21.80;53.60;;;;;;5037178;28;20080;-63
2022/08/31 05:47:31;;;;;;;5.65;4.07;;;21.40;55.30;;;;;;5047605;28;20436;-64
2022/08/31 05:54:16;;;;;;;4.90;3.97;;;20.90;54.90;;;;;;5037914;28;20213;-64
2022/08/31 05:56:44;;;;;;;4.32;3.88;;;20.60;55.40;;;;;;5046056;28;20096;-64
2022/08/31 05:59:14;;;;;;;4.68;3.63;;;20.50;56.60;;;;;;5045654;28;20048;-64
2022/08/31 06:01:41;;;;;;;6.53;4.18;;;20.40;56.40;;;;;;5057735;28;20049;-64
2022/08/31 06:04:09;;;;;;;5.07;4.10;;;20.30;55.80;;;;;;5057431;28;20045;-64
2022/08/31 06:06:37;;;;;;;5.45;3.63;;;20.20;56.50;;;;;;5053889;28;20890;-65
2022/08/31 06:09:06;;;;;;;9.73;3.53;;;20.10;56.80;;;;;;5057848;28;20099;-62
2022/08/31 06:11:34;;;;;;;10.02;4.28;;;20.00;57.10;;;;;;5057861;28;20087;-64
2022/08/31 06:14:03;;;;;;;7.63;3.78;;;19.90;56.80;;;;;;5051203;28;20485;-64
2022/08/31 06:16:32;;;;;;;7.43;4.00;;;19.80;57.20;;;;;;5057425;28;20562;-65
2022/08/31 06:19:19;;;;;;;5.40;3.88;;;19.70;56.70;;;;;;5057647;28;20045;-62
2022/08/31 06:21:48;;;;;;;6.22;3.88;;;19.60;57.50;;;;;;5046250;28;20099;-66
2022/08/31 06:24:17;;;;;;;5.05;3.53;;;19.50;58.40;;;;;;5041644;28;20124;-63
2022/08/31 06:26:54;;;;;;;8.98;4.20;;;19.50;58.00;;;;;;5036922;28;20049;-68
2022/08/31 06:29:26;;;;;;;7.53;4.95;;;19.40;57.70;;;;;;5037119;28;20452;-68
2022/08/31 06:32:12;;;;;;;5.78;4.40;;;19.30;58.60;;;;;;5036615;28;20046;-67
2022/08/31 06:34:42;;;;;;;6.55;4.20;;;19.20;57.50;;;;;;5036413;28;20057;-66
2022/08/31 06:37:11;;;;;;;5.97;3.92;;;19.20;58.20;;;;;;5042586;28;20068;-66
2022/08/31 06:39:52;;;;;;;4.97;4.03;;;19.10;58.80;;;;;;5056653;28;20065;-65
2022/08/31 06:42:22;;;;;;;6.72;4.28;;;19.10;58.80;;;;;;5056951;28;20053;-66
2022/08/31 06:48:23;;;;;;;8.30;4.32;;;19.00;58.80;;;;;;5049498;28;20044;-64
2022/08/31 06:51:00;;;;;;;8.88;4.07;;;19.00;59.50;;;;;;5035724;28;20637;-65
2022/08/31 06:53:28;;;;;;;5.72;4.05;;;19.00;59.30;;;;;;5038910;28;20099;-62
2022/08/31 06:55:56;;;;;;;15.00;5.25;;;19.00;59.30;;;;;;5039179;28;20494;-64
2022/08/31 06:58:23;;;;;;;8.25;4.25;;;18.90;60.70;;;;;;5039395;28;20049;-65
2022/08/31 07:00:50;;;;;;;9.77;4.28;;;18.90;59.80;;;;;;5039609;28;20501;-63
2022/08/31 07:03:22;;;;;;;10.65;4.20;;;18.90;59.80;;;;;;5033860;28;20049;-63
2022/08/31 07:05:51;;;;;;;10.77;4.60;;;18.80;59.20;;;;;;5036499;28;20102;-62
2022/08/31 07:08:21;;;;;;;6.47;4.00;;;18.80;60.40;;;;;;5037247;28;20119;-62
2022/08/31 07:10:48;;;;;;;9.63;4.35;;;18.90;60.60;;;;;;5037517;28;20487;-65
2022/08/31 07:13:15;;;;;;;6.05;3.92;;;18.90;60.30;;;;;;5036209;28;20044;-64
2022/08/31 07:15:43;;;;;;;10.80;4.30;;;18.90;60.40;;;;;;5031710;28;20932;-63
2022/08/31 07:18:10;;;;;;;5.93;4.18;;;18.90;59.90;;;;;;5035512;28;20049;-60
2022/08/31 07:20:37;;;;;;;9.45;3.83;;;19.00;60.40;;;;;;5036471;28;21156;-62
2022/08/31 07:23:05;;;;;;;4.93;3.80;;;18.90;60.10;;;;;;5034475;28;20049;-61
2022/08/31 07:25:37;;;;;;;7.43;4.00;;;18.90;60.40;;;;;;5037854;28;20139;-61
2022/08/31 07:28:05;;;;;;;6.32;4.22;;;19.00;60.40;;;;;;5038589;28;20053;-62
2022/08/31 07:30:40;;;;;;;7.28;3.80;;;19.10;60.70;;;;;;5035406;28;20057;-63
2022/08/31 07:33:09;;;;;;;6.18;3.80;;;19.10;61.10;;;;;;5037197;28;20055;-63
2022/08/31 07:35:36;;;;;;;5.18;3.88;;;19.10;61.50;;;;;;5036288;28;20049;-61
2022/08/31 07:43:37;;;;;;;5.45;3.80;;;19.20;60.70;;;;;;5037784;28;20048;-62
2022/08/31 07:46:05;;;;;;;5.75;4.47;;;19.30;60.70;;;;;;5034118;28;20190;-60
2022/08/31 07:48:33;;;;;;;9.40;4.13;;;19.30;61.20;;;;;;5035201;28;20053;-59
2022/08/31 07:51:01;;;;;;;6.88;5.00;;;19.30;60.60;;;;;;5037521;28;20055;-60
2022/08/31 07:53:28;;;;;;;6.00;4.03;;;19.30;60.70;;;;;;5039260;28;20160;-61
2022/08/31 07:55:55;;;;;;;5.03;3.97;;;19.20;60.50;;;;;;5034581;28;20067;-59
2022/08/31 07:58:26;;;;;;;6.35;3.92;;;19.20;61.40;;;;;;5036882;28;20099;-60
2022/08/31 08:00:54;;;;;;;4.75;3.78;;;19.20;60.80;;;;;;5039290;28;20049;-60
2022/08/31 08:03:21;;;;;;;6.10;3.88;;;19.20;61.00;;;;;;5037701;28;20044;-59
2022/08/31 08:05:53;;;;;;;9.70;4.95;;;19.20;61.20;;;;;;5037361;28;20048;-60
2022/08/31 08:08:21;;;;;;;4.90;3.95;;;19.20;61.20;;;;;;5034421;28;20471;-62
2022/08/31 08:10:49;;;;;;;4.75;3.75;;;19.30;61.10;;;;;;5030165;28;20464;-63
2022/08/31 08:13:19;;;;;;;9.95;4.30;;;19.30;60.90;;;;;;5038882;28;20080;-62
2022/08/31 08:15:49;;;;;;;8.00;4.45;;;19.30;60.90;;;;;;5039645;28;20136;-62
2022/08/31 08:18:18;;;;;;;9.20;4.18;;;19.40;60.70;;;;;;5030730;28;20769;-61
2022/08/31 08:20:46;;;;;;;9.35;4.97;;;19.40;60.40;;;;;;5036234;28;20048;-61
2022/08/31 08:23:15;;;;;;;4.13;3.55;;;19.40;60.90;;;;;;5034452;28;20700;-62
2022/08/31 08:25:45;;;;;;;7.57;4.15;;;19.40;61.10;;;;;;5033651;28;20059;-63
2022/08/31 08:28:19;;;;;;;5.85;4.05;;;19.50;61.00;;;;;;5032382;28;20067;-62
2022/08/31 08:31:12;;;;;;;5.78;3.80;;;19.50;60.30;;;;;;5035348;28;20392;-62
2022/08/31 08:33:39;;;;;;;6.45;4.10;;;19.50;60.60;;;;;;5037156;28;20045;-61
2022/08/31 08:36:07;;;;;;;5.22;4.55;;;19.60;60.90;;;;;;5038234;28;20546;-62
2022/08/31 08:38:38;;;;;;;13.15;4.90;;;19.60;60.40;;;;;;5036263;28;20049;-61
2022/08/31 08:41:21;;;;;;;4.43;3.47;;;19.60;60.50;;;;;;5037259;28;20487;-59
2022/08/31 08:43:56;;;;;;;4.10;3.67;;;19.60;60.30;;;;;;5029814;28;20056;-61
2022/08/31 08:46:42;;;;;;;5.20;4.00;;;19.60;60.60;;;;;;5033555;28;20080;-60
2022/08/31 08:49:19;;;;;;;4.15;3.15;;;19.60;60.40;;;;;;5028240;28;20048;-64
2022/08/31 08:51:52;;;;;;;5.05;3.88;;;19.60;60.10;;;;;;5036053;28;20812;-61
2022/08/31 08:54:30;;;;;;;7.97;4.18;;;19.60;60.90;;;;;;5034067;28;20053;-61
2022/08/31 08:56:59;;;;;;;5.25;4.10;;;19.70;61.00;;;;;;5035585;28;20099;-65
2022/08/31 08:59:28;;;;;;;4.13;3.73;;;19.70;61.00;;;;;;5036664;28;20464;-61
2022/08/31 09:02:00;;;;;;;6.88;4.15;;;19.70;61.00;;;;;;5038379;28;20041;-63
2022/08/31 09:04:52;;;;;;;6.53;4.25;;;19.80;61.20;;;;;;5035827;28;20452;-63
2022/08/31 09:07:49;;;;;;;5.25;3.53;;;19.80;61.20;;;;;;5037524;28;20106;-63
2022/08/31 09:10:33;;;;;;;5.45;3.90;;;19.90;61.30;;;;;;5034907;28;20298;-63
2022/08/31 09:13:32;;;;;;;5.57;4.03;;;19.90;61.00;;;;;;5035008;28;20095;-62
2022/08/31 09:16:33;;;;;;;6.88;3.80;;;20.00;61.10;;;;;;5032800;28;20053;-61
2022/08/31 09:19:11;;;;;;;6.65;4.07;;;20.00;61.10;;;;;;5032478;28;20053;-63
2022/08/31 09:21:53;;;;;;;6.50;4.15;;;20.10;61.20;;;;;;5029544;28;20471;-64
2022/08/31 09:24:25;;;;;;;5.70;3.75;;;20.10;60.80;;;;;;5034276;28;20508;-62
2022/08/31 09:27:19;;;;;;;6.05;4.57;;;20.10;60.80;;;;;;5028976;28;21392;-63
2022/08/31 09:29:59;;;;;;;7.00;4.10;;;20.10;61.10;;;;;;5037037;28;20571;-63
2022/08/31 09:32:33;;;;;;;10.60;4.50;;;20.10;61.60;;;;;;5033155;28;20041;-64
2022/08/31 09:35:06;;;;;;;6.38;3.97;;;20.10;61.20;;;;;;5035233;28;20053;-61
2022/08/31 09:37:45;;;;;;;4.18;3.75;;;20.10;61.60;;;;;;5037894;28;20045;-62
2022/08/31 09:40:20;;;;;;;8.77;4.22;;;20.10;61.80;;;;;;5041335;28;20045;-61
2022/08/31 09:43:12;;;;;;;7.38;4.55;;;20.20;62.50;;;;;;5034075;28;20136;-62
2022/08/31 09:46:06;;;;;;;4.63;3.92;;;20.30;62.40;;;;;;5042137;28;20480;-61
2022/08/31 09:48:42;;;;;;;5.80;3.53;;;20.30;62.20;;;;;;5040895;28;20063;-61
2022/08/31 09:51:33;;;;;;;6.03;4.10;;;20.40;62.00;;;;;;5039776;28;20472;-61
2022/08/31 09:57:10;;;;;;;6.15;4.40;;;20.50;61.10;;;;;;5040704;28;21271;-60
2022/08/31 09:59:48;;;;;;;5.93;3.67;;;20.50;60.30;;;;;;5046916;28;20412;-60
2022/08/31 10:02:36;;;;;;;6.03;3.83;;;20.60;60.20;;;;;;5054293;28;20057;-61
2022/08/31 10:05:16;;;;;;;4.50;3.70;;;20.50;60.20;;;;;;5042720;28;20061;-60
2022/08/31 10:07:55;;;;;;;5.35;3.75;;;20.50;60.00;;;;;;5033705;28;20152;-61
2022/08/31 10:10:28;;;;;;;5.32;4.18;;;20.50;59.80;;;;;;5035996;28;20102;-62
2022/08/31 10:13:17;;;;;;;4.45;3.65;;;20.40;59.30;;;;;;5037999;28;20045;-60
2022/08/31 10:15:53;;;;;;;4.55;3.67;;;20.40;59.10;;;;;;5043828;28;20102;-62
2022/08/31 10:18:49;;;;;;;4.47;3.95;;;20.30;59.00;;;;;;5039861;28;20056;-61
2022/08/31 10:21:42;;;;;;;5.28;3.92;;;20.30;58.80;;;;;;5039223;28;20041;-61
2022/08/31 10:24:27;;;;;;;5.53;3.03;;;20.20;58.90;;;;;;5037983;28;20551;-62
2022/08/31 10:27:05;;;;;;;6.38;3.67;;;20.20;59.10;;;;;;5035809;28;20500;-62
2022/08/31 10:29:58;;;;;;;4.05;3.60;;;20.20;58.70;;;;;;5034506;28;20041;-62
2022/08/31 10:32:52;;;;;;;4.60;3.60;;;20.20;58.30;;;;;;5039159;28;20045;-64
2022/08/31 10:35:36;;;;;;;5.72;3.65;;;20.10;58.70;;;;;;5038573;28;20045;-64
2022/08/31 10:38:19;;;;;;;3.65;3.13;;;20.10;58.70;;;;;;5038778;28;20049;-64
2022/08/31 10:41:10;;;;;;;5.03;3.42;;;20.10;58.80;;;;;;5040783;28;20056;-64
2022/08/31 10:44:22;;;;;;;4.43;3.40;;;20.10;58.50;;;;;;5032537;28;20053;-62
2022/08/31 10:46:53;;;;;;;6.38;4.03;;;20.10;58.30;;;;;;5036670;28;20053;-62
2022/08/31 10:49:21;;;;;;;5.35;4.15;;;20.00;58.50;;;;;;5036982;28;20037;-62
2022/08/31 10:52:04;;;;;;;5.20;3.05;;;20.00;58.50;;;;;;5036948;28;20075;-62
2022/08/31 10:54:53;;;;;;;4.13;3.42;;;20.10;58.90;;;;;;5034495;28;20049;-62
2022/08/31 10:57:51;;;;;;;4.35;3.38;;;20.10;58.40;;;;;;5033824;28;20048;-61
2022/08/31 11:03:49;;;;;;;5.35;3.40;;;20.10;58.70;;;;;;5033967;28;20057;-61
2022/08/31 11:06:50;;;;;;;4.82;3.40;;;20.10;58.50;;;;;;5035553;28;20045;-62
2022/08/31 11:09:34;;;;;;;4.47;3.50;;;20.10;58.60;;;;;;5039958;28;20033;-62
2022/08/31 11:12:17;;;;;;;5.07;3.97;;;20.20;58.80;;;;;;5038015;28;20424;-59
2022/08/31 11:15:11;;;;;;;3.72;3.33;;;20.20;58.60;;;;;;5041202;28;20106;-61
2022/08/31 11:18:00;;;;;;;4.65;3.20;;;20.20;58.50;;;;;;5035117;28;20072;-61
2022/08/31 11:21:06;;;;;;;4.90;3.28;;;20.20;58.70;;;;;;5038115;28;20372;-61
2022/08/31 11:23:55;;;;;;;4.82;3.85;;;20.20;58.30;;;;;;5034181;28;20404;-62
2022/08/31 11:26:43;;;;;;;3.88;3.47;;;20.20;58.60;;;;;;5040829;28;20048;-58
2022/08/31 11:29:32;;;;;;;6.22;4.07;;;20.30;58.80;;;;;;5042650;28;20111;-60
2022/08/31 11:32:17;;;;;;;4.90;3.50;;;20.30;59.00;;;;;;5034804;28;20109;-60
2022/08/31 11:34:52;;;;;;;4.28;3.28;;;20.30;58.90;;;;;;5037808;28;20045;-61
2022/08/31 11:37:51;;;;;;;4.75;3.40;;;20.30;59.90;;;;;;5036265;28;20072;-61
2022/08/31 11:40:56;;;;;;;4.95;3.47;;;20.30;59.90;;;;;;5038911;28;20049;-61
2022/08/31 11:43:42;;;;;;;5.43;3.72;;;20.30;59.80;;;;;;5035054;28;20049;-62
2022/08/31 11:46:41;;;;;;;5.10;3.22;;;20.40;59.80;;;;;;5035380;28;20053;-63
2022/08/31 11:49:33;;;;;;;4.50;3.28;;;20.50;59.90;;;;;;5035799;28;20143;-62
2022/08/31 11:52:04;;;;;;;8.73;3.25;;;20.50;60.00;;;;;;5035055;28;20893;-60
2022/08/31 11:54:55;;;;;;;3.85;3.47;;;20.60;59.90;;;;;;5037775;28;20053;-61
2022/08/31 11:57:27;;;;;;;7.80;3.55;;;20.60;59.50;;;;;;5034232;28;20084;-61
2022/08/31 11:59:55;;;;;;;4.35;3.75;;;20.70;59.50;;;;;;5037735;28;20053;-60
2022/08/31 12:02:43;;;;;;;5.05;3.30;;;20.70;59.80;;;;;;5038415;28;20053;-62
2022/08/31 12:05:12;;;;;;;5.93;3.63;;;20.70;59.20;;;;;;5032825;28;20048;-62
2022/08/31 12:07:47;;;;;;;7.05;3.35;;;20.70;59.70;;;;;;5035244;28;20146;-62
2022/08/31 12:10:38;;;;;;;5.18;3.67;;;20.70;59.70;;;;;;5036781;28;20583;-62
2022/08/31 12:13:17;;;;;;;4.60;3.47;;;20.70;59.30;;;;;;5026495;28;20080;-63
2022/08/31 12:16:20;;;;;;;5.20;3.20;;;20.80;59.40;;;;;;5038424;28;20099;-62
2022/08/31 12:26:23;;;;;;;3.78;3.20;;;20.90;59.10;;;;;;5038123;28;20864;-61
2022/08/31 12:29:16;;;;;;;3.78;3.47;;;20.90;59.10;;;;;;5036167;28;20048;-62
2022/08/31 12:31:59;;;;;;;4.57;3.58;;;21.00;59.40;;;;;;5034997;28;20464;-61
2022/08/31 12:34:28;;;;;;;4.93;3.67;;;21.00;59.40;;;;;;5038896;28;20087;-60
2022/08/31 12:36:55;;;;;;;4.82;3.20;;;21.10;59.30;;;;;;5032121;28;20484;-62
2022/08/31 12:39:25;;;;;;;3.97;3.53;;;21.10;59.40;;;;;;5037583;28;20481;-61
2022/08/31 12:42:01;;;;;;;4.65;3.67;;;21.10;59.50;;;;;;5037113;28;20189;-61
2022/08/31 12:44:40;;;;;;;3.85;3.30;;;21.20;59.30;;;;;;5035462;28;20440;-62
2022/08/31 12:47:26;;;;;;;3.72;3.42;;;21.20;59.30;;;;;;5037905;28;20135;-61
2022/08/31 12:50:18;;;;;;;5.10;3.50;;;21.20;59.50;;;;;;5037389;28;20400;-60
2022/08/31 12:53:24;;;;;;;4.93;4.43;;;21.30;59.50;;;;;;5039364;28;20080;-60
2022/08/31 12:56:09;;;;;;;4.78;3.50;;;21.30;59.40;;;;;;5036615;28;20087;-61
2022/08/31 12:58:54;;;;;;;6.55;4.63;;;21.30;59.50;;;;;;5044360;28;20060;-61
2022/08/31 13:01:25;;;;;;;5.25;3.70;;;21.30;59.20;;;;;;5046426;28;20045;-61
2022/08/31 13:03:54;;;;;;;;;;;21.40;59.30;;;;;;5044529;28;20712;-61
2022/08/31 13:06:26;;;;;;;5.93;4.00;;;21.30;58.80;;;;;;5041437;28;20005;-60
2022/08/31 13:08:54;;;;;;;5.13;3.95;;;21.40;58.90;;;;;;5034873;28;20116;-62
2022/08/31 13:11:38;;;;;;;5.60;3.45;;;21.40;59.00;;;;;;5043245;28;20455;-61
2022/08/31 13:14:22;;;;;;;8.98;4.00;;;21.40;58.70;;;;;;5040097;28;20049;-61
2022/08/31 13:16:53;;;;;;;4.82;3.53;;;21.40;58.60;;;;;;5040825;28;20121;-62
2022/08/31 13:19:28;;;;;;;5.72;3.80;;;21.40;58.60;;;;;;5038834;28;20052;-61
2022/08/31 13:22:04;;;;;;;4.18;3.78;;;21.40;58.50;;;;;;5045187;28;20103;-63
2022/08/31 13:24:39;;;;;;;5.15;2.80;;;21.50;58.10;;;;;;5044760;28;20067;-61
2022/08/31 13:27:16;;;;;;;6.15;3.42;;;21.50;58.20;;;;;;5045099;28;20080;-60
2022/08/31 13:29:45;;;;;;;6.68;3.58;;;21.50;58.00;;;;;;5040734;28;20084;-59
2022/08/31 13:32:31;;;;;;;5.13;3.20;;;21.50;57.90;;;;;;5042323;28;20564;-61
2022/08/31 13:35:09;;;;;;;6.07;3.35;;;21.40;58.00;;;;;;5035822;28;20106;-62
2022/08/31 13:37:41;;;;;;;3.90;3.50;;;21.40;58.10;;;;;;5039350;28;20048;-61
2022/08/31 13:40:12;;;;;;;4.55;3.85;;;21.40;57.90;;;;;;5031178;28;20591;-60
2022/08/31 13:42:48;;;;;;;6.10;4.20;;;21.40;58.10;;;;;;5039017;28;20042;-59
2022/08/31 13:45:32;;;;;;;4.05;3.20;;;21.40;58.00;;;;;;5038765;28;20057;-58
2022/08/31 13:48:17;;;;;;;7.50;3.85;;;21.40;58.30;;;;;;5041729;28;20091;-59
2022/08/31 13:50:53;;;;;;;4.05;3.20;;;21.40;58.20;;;;;;5042321;28;20057;-59
2022/08/31 13:53:38;;;;;;;4.63;3.60;;;21.40;58.20;;;;;;5038647;28;20045;-60
2022/08/31 13:59:28;;;;;;;4.88;2.90;;;21.50;57.90;;;;;;5039188;28;20057;-60
2022/08/31 14:02:00;;;;;;;4.00;3.30;;;21.50;58.10;;;;;;5037895;28;20044;-58
2022/08/31 14:04:48;;;;;;;3.22;2.78;;;21.60;58.00;;;;;;5042850;28;20048;-60
2022/08/31 14:07:25;;;;;;;4.53;2.88;;;21.60;57.70;;;;;;5039020;28;20111;-61
2022/08/31 14:10:22;;;;;;;3.92;2.65;;;21.60;58.00;;;;;;5040079;28;20044;-60
2022/08/31 14:12:58;;;;;;;3.85;3.00;;;21.70;58.00;;;;;;5043337;28;20551;-60
2022/08/31 14:15:40;;;;;;;7.72;3.20;;;21.70;58.10;;;;;;5039461;28;20045;-60